Time;durP1;ratioP1;P1;durP2;ratioP2;P2;SDS_P1;SDS_P2;PMS_P1;PMS_P2;Temp;Humidity;BMP_temperature;BMP_pressure;BME280_temperature;BME280_humidity;BME280_pressure;Samples;Min_cycle;Max_cycle;Signal;HPM_P1;HPM_P2
2022/11/19 00:00:19;;;;;;;20.03;11.23;;;4.50;99.90;;;2.20;100.00;98933.75;10499216;28;20481;-80
2022/11/19 00:05:22;;;;;;;19.40;10.03;;;4.50;99.90;;;2.17;100.00;98936.69;10500233;28;20069;-80
2022/11/19 00:10:25;;;;;;;17.47;9.47;;;4.40;99.90;;;2.12;100.00;98944.97;10480445;28;20104;-81
2022/11/19 00:15:28;;;;;;;19.10;10.33;;;4.40;99.90;;;2.13;100.00;98948.41;10485930;28;20072;-81
2022/11/19 00:20:33;;;;;;;20.07;10.87;;;4.40;99.90;;;2.11;100.00;98943.31;10499902;28;20063;-81
2022/11/19 00:25:36;;;;;;;19.80;10.67;;;4.40;99.90;;;2.05;100.00;98957.00;10457975;28;20158;-81
2022/11/19 00:30:39;;;;;;;23.80;11.90;;;4.30;99.90;;;1.95;100.00;98966.69;10518108;28;20057;-81
2022/11/19 00:35:53;;;;;;;19.17;11.13;;;4.30;99.90;;;1.87;100.00;98993.59;10465933;28;20061;-81
2022/11/19 00:40:56;;;;;;;19.40;11.07;;;4.20;99.90;;;1.81;100.00;98999.41;10484314;28;20060;-81
2022/11/19 00:46:00;;;;;;;22.33;11.33;;;4.10;99.90;;;1.73;100.00;99003.69;10489567;28;20061;-80
2022/11/19 00:51:03;;;;;;;21.20;10.73;;;4.10;99.90;;;1.63;100.00;99000.28;10518413;28;20060;-80
2022/11/19 00:56:13;;;;;;;20.70;10.73;;;4.00;99.90;;;1.54;100.00;99012.41;10516338;28;20087;-79
2022/11/19 01:01:19;;;;;;;23.03;11.20;;;3.90;99.90;;;1.44;100.00;99027.28;10489544;28;20061;-80
2022/11/19 01:06:24;;;;;;;20.07;10.70;;;3.80;99.90;;;1.39;100.00;99029.50;10516489;28;20115;-79
2022/11/19 01:11:32;;;;;;;23.40;11.73;;;3.70;99.90;;;1.32;100.00;99034.47;10501490;28;20091;-80
2022/11/19 01:16:40;;;;;;;24.37;10.60;;;3.70;99.90;;;1.25;100.00;99041.19;10522998;28;20053;-80
2022/11/19 01:21:43;;;;;;;23.43;11.57;;;3.60;99.90;;;1.15;100.00;99046.44;10511070;28;20061;-79
2022/11/19 01:26:46;;;;;;;22.70;11.17;;;3.50;99.90;;;1.06;100.00;99065.53;10500248;28;20119;-80
2022/11/19 01:31:49;;;;;;;23.53;10.87;;;3.40;99.90;;;0.99;100.00;99080.97;10478438;28;20064;-79
2022/11/19 01:36:52;;;;;;;22.23;11.17;;;3.40;99.90;;;0.90;100.00;99094.84;10515339;27;20104;-79
2022/11/19 01:41:55;;;;;;;24.93;11.80;;;3.30;99.90;;;0.79;100.00;99106.25;10478540;28;20053;-80
2022/11/19 01:46:58;;;;;;;25.47;12.07;;;3.20;99.90;;;0.70;100.00;99093.13;10474924;28;20111;-79
2022/11/19 01:52:02;;;;;;;25.53;11.80;;;3.10;99.90;;;0.61;100.00;99092.13;10512844;28;20115;-80
2022/11/19 01:57:12;;;;;;;30.23;12.83;;;3.00;99.90;;;0.52;100.00;99088.50;10465808;28;20057;-81
2022/11/19 02:02:18;;;;;;;28.47;13.17;;;2.90;99.90;;;0.45;100.00;99105.66;10478078;28;20064;-81
2022/11/19 02:07:27;;;;;;;25.43;12.63;;;2.80;99.90;;;0.36;100.00;99101.25;10490216;28;20406;-81
2022/11/19 02:12:57;;;;;;;32.07;12.80;;;2.80;99.90;;;0.31;100.00;99137.38;10479149;28;20057;-81
2022/11/19 02:18:13;;;;;;;30.13;13.13;;;2.70;99.90;;;0.28;100.00;99147.25;10472412;28;20057;-81
2022/11/19 02:23:55;;;;;;;30.70;13.47;;;2.70;99.90;;;0.25;100.00;99153.56;10465863;28;20111;-80
2022/11/19 02:29:04;;;;;;;24.52;11.30;;;2.60;99.90;;;0.22;100.00;99159.88;10477263;28;20053;-79
2022/11/19 02:34:29;;;;;;;31.30;15.00;;;2.60;99.90;;;0.20;100.00;99174.03;10492589;28;20064;-79
2022/11/19 02:39:35;;;;;;;33.53;13.03;;;2.60;99.90;;;0.20;100.00;99185.31;10485883;28;20779;-79
2022/11/19 02:45:15;;;;;;;29.53;14.43;;;2.50;99.90;;;0.19;100.00;99188.88;10493891;28;20459;-80
2022/11/19 02:50:45;;;;;;;33.63;13.60;;;2.60;99.90;;;0.18;100.00;99192.44;10483265;28;20135;-80
2022/11/19 03:06:33;;;;;;;28.53;13.60;;;2.60;99.90;;;0.19;100.00;99229.84;10498081;28;20081;-79
2022/11/19 03:11:36;;;;;;;33.10;14.27;;;2.60;99.90;;;0.18;100.00;99260.38;10495813;28;20061;-80
2022/11/19 03:16:50;;;;;;;30.20;13.63;;;2.60;99.90;;;0.17;100.00;99284.81;10475465;28;20116;-80
2022/11/19 03:22:06;;;;;;;33.53;15.33;;;2.60;99.90;;;0.12;100.00;99287.00;10524734;28;20072;-79
2022/11/19 03:27:24;;;;;;;36.47;15.17;;;2.50;99.90;;;0.04;100.00;99299.81;10503301;28;20088;-79
2022/11/19 03:32:35;;;;;;;29.60;13.13;;;2.40;99.90;;;-0.01;100.00;99296.75;10521329;28;20516;-79
2022/11/19 03:37:41;;;;;;;30.17;12.95;;;2.40;99.90;;;-0.03;100.00;99296.88;10511443;28;20060;-79
2022/11/19 03:42:49;;;;;;;33.10;13.00;;;2.40;99.90;;;0.02;100.00;99270.41;10449986;28;20509;-80
2022/11/19 03:47:55;;;;;;;30.43;12.27;;;2.40;99.90;;;0.03;100.00;99276.44;10464608;28;20456;-79
2022/11/19 03:52:58;;;;;;;33.03;13.17;;;2.50;99.90;;;-0.02;100.00;99289.88;10484822;28;20068;-79
2022/11/19 03:58:09;;;;;;;31.43;13.43;;;2.40;99.90;;;-0.10;100.00;99305.34;10536845;28;20061;-80
2022/11/19 04:03:12;;;;;;;27.13;12.03;;;2.30;99.90;;;-0.12;100.00;99295.03;10495379;28;20589;-80
2022/11/19 04:08:15;;;;;;;33.07;14.23;;;2.30;99.90;;;-0.18;100.00;99294.66;10486983;28;20049;-80
2022/11/19 04:13:18;;;;;;;27.07;12.30;;;2.20;99.90;;;-0.22;100.00;99308.91;10520431;28;20057;-80
2022/11/19 04:18:21;;;;;;;29.50;13.17;;;2.10;99.90;;;-0.28;100.00;99308.44;10465495;28;20053;-80
2022/11/19 04:23:24;;;;;;;24.50;11.57;;;2.10;99.90;;;-0.33;100.00;99326.25;10501882;28;20501;-80
2022/11/19 04:28:27;;;;;;;28.53;11.80;;;2.00;99.90;;;-0.36;100.00;99336.94;10475512;28;20505;-80
2022/11/19 04:33:30;;;;;;;26.90;12.43;;;2.00;99.90;;;-0.36;100.00;99364.81;10483559;28;20071;-80
2022/11/19 04:38:33;;;;;;;30.60;11.73;;;2.00;99.90;;;-0.39;100.00;99368.50;10500934;28;20079;-79
2022/11/19 04:43:36;;;;;;;30.03;12.63;;;2.00;99.90;;;-0.42;100.00;99381.78;10501759;28;20060;-80
2022/11/19 04:48:39;;;;;;;27.13;12.40;;;2.00;99.90;;;-0.39;100.00;99392.00;10441445;28;20120;-79
2022/11/19 04:53:43;;;;;;;31.03;12.73;;;2.00;99.90;;;-0.36;100.00;99396.13;10483589;28;20061;-79
2022/11/19 04:58:46;;;;;;;30.30;12.13;;;2.00;99.90;;;-0.35;100.00;99401.25;10466612;28;20056;-80
2022/11/19 05:03:49;;;;;;;28.77;12.13;;;2.10;99.90;;;-0.36;100.00;99417.88;10471484;28;20065;-80
2022/11/19 05:08:52;;;;;;;27.90;11.90;;;2.00;99.90;;;-0.31;100.00;99413.09;10508865;28;20112;-79
2022/11/19 05:13:55;;;;;;;28.43;12.40;;;2.10;99.90;;;-0.28;100.00;99439.00;10498189;28;20152;-79
2022/11/19 05:18:58;;;;;;;29.50;12.60;;;2.10;99.90;;;-0.24;100.00;99452.66;10465749;28;20180;-79
2022/11/19 05:24:01;;;;;;;26.73;12.67;;;2.10;99.90;;;-0.20;100.00;99463.69;10493493;28;20056;-79
2022/11/19 05:29:04;;;;;;;26.37;13.57;;;2.20;99.90;;;-0.21;100.00;99462.03;10499385;28;20123;-79
2022/11/19 05:34:07;;;;;;;29.63;12.90;;;2.20;99.90;;;-0.17;100.00;99481.75;10454848;28;20061;-79
2022/11/19 05:39:10;;;;;;;22.77;10.57;;;2.20;99.90;;;-0.13;100.00;99481.34;10482791;28;20057;-80
2022/11/19 05:44:13;;;;;;;24.50;10.90;;;2.30;99.90;;;-0.07;100.00;99488.72;10531780;28;20068;-80
2022/11/19 05:49:16;;;;;;;30.33;12.07;;;2.40;99.90;;;-0.04;100.00;99485.06;10495296;28;20064;-80
2022/11/19 05:54:19;;;;;;;28.23;11.83;;;2.40;99.90;;;-0.02;100.00;99494.44;10476859;28;21990;-80
2022/11/19 05:59:22;;;;;;;35.63;13.97;;;2.40;99.90;;;-0.01;100.00;99505.72;10459859;28;20068;-80
2022/11/19 06:04:24;;;;;;;29.47;12.83;;;2.40;99.90;;;-0.05;100.00;99514.75;10487094;28;20061;-79
2022/11/19 06:09:27;;;;;;;32.63;13.63;;;2.40;99.90;;;-0.09;100.00;99555.09;10487388;28;20085;-80
2022/11/19 06:14:30;;;;;;;28.20;12.30;;;2.30;99.90;;;-0.12;100.00;99524.84;10493748;28;20514;-80
2022/11/19 06:19:33;;;;;;;29.63;12.40;;;2.30;99.90;;;-0.10;100.00;99554.28;10428615;28;20064;-81
2022/11/19 06:24:36;;;;;;;32.77;12.53;;;2.40;99.90;;;-0.06;100.00;99570.53;10491661;28;20060;-78
2022/11/19 06:29:39;;;;;;;34.10;13.27;;;2.40;99.90;;;-0.03;100.00;99583.38;10476807;28;20061;-77
2022/11/19 06:34:42;;;;;;;32.67;12.93;;;2.40;99.90;;;-0.04;100.00;99581.72;10485376;28;20064;-77
2022/11/19 06:39:45;;;;;;;28.77;12.50;;;2.40;99.90;;;-0.03;100.00;99585.97;10521784;28;20068;-77
2022/11/19 06:44:48;;;;;;;34.73;15.07;;;2.40;99.90;;;-0.04;100.00;99589.53;10507547;28;20084;-78
2022/11/19 06:49:51;;;;;;;29.87;13.63;;;2.40;99.90;;;-0.02;100.00;99598.09;10461494;28;20057;-77
2022/11/19 06:54:54;;;;;;;31.13;13.97;;;2.40;99.90;;;0.03;100.00;99589.91;10476544;28;20151;-77
2022/11/19 06:59:57;;;;;;;28.17;12.70;;;2.40;99.90;;;0.13;100.00;99596.94;10474836;28;20138;-77
2022/11/19 07:05:00;;;;;;;31.80;14.97;;;2.50;99.90;;;0.34;100.00;99604.09;10487275;28;20567;-77
2022/11/19 07:10:04;;;;;;;32.80;15.17;;;2.70;99.90;;;1.01;100.00;99580.50;10493365;28;20062;-79
2022/11/19 07:15:08;;;;;;;27.43;13.40;;;3.10;99.90;;;1.75;100.00;99591.13;10500377;28;20417;-77
2022/11/19 07:20:11;;;;;;;26.90;12.17;;;3.60;99.90;;;1.98;100.00;99590.03;10476153;28;20060;-77
2022/11/19 07:25:14;;;;;;;24.07;11.33;;;3.90;99.90;;;2.00;100.00;99603.84;10498779;28;20062;-77
2022/11/19 07:30:17;;;;;;;21.53;10.87;;;4.10;99.90;;;2.03;100.00;99597.50;10452602;28;20061;-77
2022/11/19 07:35:20;;;;;;;39.70;21.27;;;4.30;99.90;;;2.11;100.00;99587.22;10516290;28;20067;-78
2022/11/19 07:40:23;;;;;;;22.07;10.40;;;4.40;99.90;;;2.17;100.00;99609.47;10485278;28;20148;-77
2022/11/19 07:45:26;;;;;;;25.43;12.93;;;4.50;99.90;;;2.12;100.00;99607.22;10497790;28;20478;-77
2022/11/19 07:50:29;;;;;;;25.50;13.40;;;4.50;99.90;;;2.10;100.00;99588.19;10498768;28;20060;-77
2022/11/19 07:55:32;;;;;;;23.90;11.57;;;4.50;99.90;;;2.14;100.00;99594.81;10469973;28;20060;-78
2022/11/19 08:00:36;;;;;;;23.07;12.13;;;4.60;99.90;;;2.17;100.00;99614.72;10474266;28;20467;-77
2022/11/19 08:05:39;;;;;;;24.67;11.33;;;4.60;99.90;;;2.08;100.00;99632.84;10484234;28;20111;-77
2022/11/19 08:10:42;;;;;;;30.33;12.97;;;4.50;99.90;;;1.91;100.00;99635.19;10468901;28;20065;-77
2022/11/19 08:15:45;;;;;;;23.53;11.13;;;4.30;99.90;;;2.34;100.00;99641.19;10518106;28;20061;-77
2022/11/19 08:20:47;;;;;;;22.10;10.47;;;4.50;99.90;;;3.09;100.00;99629.47;10497963;28;20142;-77
2022/11/19 08:25:51;;;;;;;19.90;9.90;;;5.10;99.90;;;4.05;98.84;99650.75;10499412;28;20057;-84
2022/11/19 08:30:55;;;;;;;16.63;8.63;;;6.00;99.90;;;4.79;97.93;99653.50;10502625;28;20065;-77
2022/11/19 08:35:58;;;;;;;17.23;8.97;;;6.60;99.90;;;5.30;95.18;99662.69;10502154;28;20058;-77
2022/11/19 08:46:22;;;;;;;15.63;9.30;;;7.80;99.90;;;6.54;91.69;99674.28;10479781;28;20109;-78
2022/11/19 08:51:25;;;;;;;14.67;8.00;;;8.50;99.90;;;6.80;88.35;99659.22;10470376;28;20544;-79
2022/11/19 08:56:29;;;;;;;18.30;9.63;;;8.90;99.90;;;6.79;86.97;99662.03;10501463;28;20057;-78
2022/11/19 09:01:32;;;;;;;14.73;8.20;;;9.10;99.90;;;6.90;86.80;99669.69;10513052;28;20061;-78
2022/11/19 09:06:35;;;;;;;14.93;8.53;;;9.20;99.90;;;7.22;86.46;99677.78;10504813;28;20087;-78
2022/11/19 09:11:38;;;;;;;14.83;8.13;;;9.50;99.90;;;7.27;85.88;99701.09;10488647;28;20459;-77
2022/11/19 09:16:44;;;;;;;13.90;7.80;;;9.70;99.90;;;7.30;85.01;99713.97;10530124;28;20067;-77
2022/11/19 09:21:48;;;;;;;15.77;8.90;;;9.80;99.90;;;7.12;83.14;99714.03;10513062;28;20151;-77
2022/11/19 09:26:51;;;;;;;15.33;8.93;;;9.70;99.90;;;6.73;82.61;99713.66;10481197;28;20111;-77
2022/11/19 09:31:55;;;;;;;21.47;11.53;;;9.30;99.90;;;6.23;81.72;99718.69;10492084;28;20061;-83
2022/11/19 09:36:58;;;;;;;17.97;9.10;;;8.80;99.90;;;5.78;83.31;99745.94;10475404;28;20057;-82
2022/11/19 09:42:47;;;;;;;20.40;8.90;;;8.30;99.90;;;5.43;84.53;99746.66;10456089;28;20053;-77
2022/11/19 09:48:15;;;;;;;17.50;9.67;;;8.00;99.90;;;5.19;84.96;99750.66;10454961;28;20119;-77
2022/11/19 09:53:21;;;;;;;20.10;10.70;;;7.70;99.90;;;5.05;85.30;99751.13;10483437;28;20072;-77
2022/11/19 09:58:37;;;;;;;24.73;12.53;;;7.50;99.90;;;4.71;82.19;99746.34;10473320;28;20148;-77
2022/11/19 10:03:43;;;;;;;28.67;12.97;;;7.20;99.90;;;4.33;81.15;99763.00;10469913;28;20049;-77
2022/11/19 10:09:04;;;;;;;31.67;14.47;;;6.90;99.90;;;4.05;80.81;99758.56;10515179;28;20057;-77
2022/11/19 10:14:36;;;;;;;29.93;13.10;;;6.70;99.90;;;3.96;82.34;99744.44;10481328;28;20057;-77
2022/11/19 10:19:49;;;;;;;28.60;13.80;;;6.50;99.90;;;3.83;81.47;99749.94;10457309;28;20061;-77
2022/11/19 10:25:18;;;;;;;29.23;14.80;;;6.40;99.90;;;3.87;82.09;99730.28;10464396;28;20053;-78
2022/11/19 10:30:28;;;;;;;25.97;12.93;;;6.40;99.90;;;4.13;83.43;99748.16;10485297;28;20057;-78
2022/11/19 10:36:11;;;;;;;22.70;12.10;;;6.60;99.90;;;4.36;84.18;99744.28;10498167;28;20068;-78
2022/11/19 10:41:20;;;;;;;23.20;12.23;;;6.80;99.90;;;4.53;83.26;99734.88;10469079;28;20505;-78
2022/11/19 10:46:26;;;;;;;27.37;12.80;;;7.00;99.90;;;4.62;81.75;99741.94;10466745;28;20527;-78
2022/11/19 10:51:39;;;;;;;22.20;10.87;;;7.10;99.90;;;4.72;82.96;99736.63;10455989;28;20111;-78
2022/11/19 10:56:42;;;;;;;22.30;11.23;;;7.20;99.90;;;4.95;85.34;99742.41;10494111;28;20061;-78
2022/11/19 11:01:51;;;;;;;26.83;13.30;;;7.50;99.90;;;5.00;84.61;99748.91;10477167;28;20072;-78
2022/11/19 11:06:58;;;;;;;24.40;12.23;;;7.60;99.90;;;5.10;86.03;99747.09;10498526;28;20057;-78
2022/11/19 11:17:43;;;;;;;21.37;11.60;;;7.80;99.90;;;5.40;81.45;99771.53;10484277;28;20053;-78
2022/11/19 11:23:00;;;;;;;30.60;13.97;;;8.00;99.90;;;5.31;80.52;99775.00;10496493;27;20056;-78
2022/11/19 11:28:05;;;;;;;26.33;13.63;;;7.90;99.90;;;4.97;78.51;99780.78;10489920;28;20065;-78
2022/11/19 11:33:23;;;;;;;23.47;12.13;;;7.60;99.90;;;4.74;79.27;99782.94;10481829;28;20067;-78
2022/11/19 11:38:28;;;;;;;22.30;11.63;;;7.40;99.90;;;4.55;78.85;99778.47;10495435;28;20592;-78
2022/11/19 11:43:33;;;;;;;25.97;13.13;;;7.20;99.90;;;4.32;78.42;99782.38;10513888;28;20092;-78
2022/11/19 11:48:44;;;;;;;25.77;13.37;;;6.90;99.90;;;4.14;78.29;99782.25;10484435;28;20065;-78
2022/11/19 11:54:21;;;;;;;33.67;14.65;;;6.70;99.90;;;3.95;77.72;99787.44;10479731;28;20070;-78
2022/11/19 11:59:29;;;;;;;31.07;14.07;;;6.50;99.90;;;3.83;78.56;99786.72;10462535;28;20107;-78
2022/11/19 12:04:34;;;;;;;29.60;14.50;;;6.40;99.90;;;3.75;78.28;99794.47;10487174;28;20061;-78
2022/11/19 12:09:44;;;;;;;30.40;14.33;;;6.30;99.90;;;3.79;78.67;99790.59;10488825;28;20077;-77
2022/11/19 12:15:18;;;;;;;31.43;15.37;;;6.30;99.90;;;3.73;77.41;99778.00;10473830;28;20057;-78
2022/11/19 12:21:02;;;;;;;27.10;13.97;;;6.30;99.90;;;3.75;78.14;99776.06;10483980;28;20118;-78
2022/11/19 12:26:26;;;;;;;27.37;13.03;;;6.30;99.90;;;3.83;78.70;99770.94;10502717;28;20119;-78
2022/11/19 12:31:57;;;;;;;25.27;12.73;;;6.40;99.90;;;3.97;79.45;99767.13;10512115;28;20562;-78
2022/11/19 12:37:25;;;;;;;29.70;14.43;;;6.50;99.90;;;4.13;80.27;99756.06;10486478;28;20083;-78
2022/11/19 12:43:01;;;;;;;25.93;12.20;;;6.60;99.90;;;4.34;80.31;99764.66;10476393;28;20138;-78
2022/11/19 12:48:28;;;;;;;23.53;11.57;;;6.90;99.90;;;4.51;79.59;99761.34;10488188;28;20140;-78
2022/11/19 12:53:43;;;;;;;22.93;11.20;;;7.10;99.90;;;4.75;81.48;99765.31;10479730;28;20071;-78
2022/11/19 12:59:01;;;;;;;21.93;10.77;;;7.30;99.90;;;4.97;82.05;99759.72;10487784;28;20366;-78
2022/11/19 13:04:22;;;;;;;21.23;11.00;;;7.50;99.90;;;5.06;83.22;99745.69;10466910;28;20057;-78
2022/11/19 13:09:47;;;;;;;17.47;10.33;;;7.60;99.90;;;5.04;83.90;99765.28;10479646;28;20064;-78
2022/11/19 13:15:01;;;;;;;21.30;11.87;;;7.60;99.90;;;4.94;83.28;99773.19;10479838;28;20145;-78
2022/11/19 13:20:26;;;;;;;22.70;12.37;;;7.50;99.90;;;4.82;84.61;99774.31;10504451;28;20145;-78
2022/11/19 13:25:39;;;;;;;20.90;11.10;;;7.30;99.90;;;4.75;85.57;99781.94;10458327;28;20066;-78
2022/11/19 13:30:45;;;;;;;22.70;10.67;;;7.20;99.90;;;4.57;85.87;99797.63;10461004;28;20412;-78
2022/11/19 13:36:31;;;;;;;21.37;10.60;;;7.00;99.90;;;4.42;86.89;99806.88;10484770;28;20111;-79
2022/11/19 13:47:49;;;;;;;24.20;12.07;;;6.80;99.90;;;4.15;87.66;99807.56;10479347;28;20065;-78
2022/11/19 13:53:18;;;;;;;23.87;11.87;;;6.60;99.90;;;3.99;89.22;99823.84;10496525;28;20658;-77
2022/11/19 13:58:37;;;;;;;25.87;12.30;;;6.50;99.90;;;3.89;89.86;99812.47;10478666;28;20057;-77
2022/11/19 14:04:18;;;;;;;33.57;15.83;;;6.40;99.90;;;3.87;90.21;99827.56;10464917;28;20731;-77
2022/11/19 14:09:42;;;;;;;25.93;12.77;;;6.30;99.90;;;3.77;90.62;99829.31;10483151;28;20152;-77
2022/11/19 14:26:30;;;;;;;21.90;11.60;;;6.10;99.90;;;3.49;92.37;99809.88;10467561;28;20119;-79
2022/11/19 14:31:59;;;;;;;26.33;12.33;;;6.00;99.90;;;3.39;92.92;99812.44;10484309;28;20517;-80
2022/11/19 14:37:38;;;;;;;25.60;12.03;;;5.90;99.90;;;3.28;93.12;99815.16;10498163;28;20122;-77
2022/11/19 14:48:38;;;;;;;38.87;17.90;;;5.70;99.90;;;3.08;94.56;99803.72;10515439;28;20068;-77
2022/11/19 14:54:13;;;;;;;38.40;17.40;;;5.50;99.90;;;2.99;94.92;99811.53;10504079;28;20057;-77
2022/11/19 14:59:23;;;;;;;35.27;15.40;;;5.50;99.90;;;2.90;95.21;99827.09;10487485;28;20126;-77
2022/11/19 15:04:48;;;;;;;36.30;16.63;;;5.40;99.90;;;2.83;95.74;99827.75;10482226;28;20057;-77
2022/11/19 15:10:09;;;;;;;33.37;14.77;;;5.30;99.90;;;2.77;96.27;99833.50;10469471;28;20072;-83
2022/11/19 15:15:18;;;;;;;43.70;17.27;;;5.20;99.90;;;2.77;96.84;99838.75;10471845;28;20067;-80
2022/11/19 15:21:05;;;;;;;29.33;14.67;;;5.30;99.90;;;2.78;97.47;99841.22;10482633;28;20065;-80
2022/11/19 15:26:45;;;;;;;27.23;13.10;;;5.20;99.90;;;2.82;98.11;99855.78;10490581;28;20183;-77
2022/11/19 15:32:41;;;;;;;135.17;80.83;;;5.30;99.90;;;2.84;98.63;99855.63;10511773;28;20088;-79
2022/11/19 15:38:15;;;;;;;45.47;24.83;;;5.30;99.90;;;2.81;98.77;99856.72;10526294;28;20106;-80
2022/11/19 15:43:44;;;;;;;35.10;17.17;;;5.30;99.90;;;2.81;99.39;99861.13;10473907;28;20062;-80
2022/11/19 15:49:25;;;;;;;31.63;16.23;;;5.30;99.90;;;2.78;99.74;99861.41;10529084;28;20057;-80
2022/11/19 15:54:31;;;;;;;73.27;28.37;;;5.20;99.90;;;2.72;100.00;99848.78;10485411;28;20156;-80
2022/11/19 15:59:37;;;;;;;31.33;15.93;;;5.20;99.90;;;2.64;100.00;99865.16;10510886;28;20060;-78
2022/11/19 16:04:40;;;;;;;34.47;15.90;;;5.10;99.90;;;2.58;100.00;99853.38;10483499;28;20065;-79
2022/11/19 16:09:43;;;;;;;30.90;15.83;;;5.00;99.90;;;2.51;100.00;99860.06;10528877;28;20061;-80
2022/11/19 16:20:21;;;;;;;31.10;14.77;;;4.90;99.90;;;2.40;100.00;99866.19;10466184;28;20067;-78
2022/11/19 16:25:36;;;;;;;29.00;14.73;;;4.90;99.90;;;2.37;100.00;99879.53;10484688;28;20057;-78
2022/11/19 16:30:48;;;;;;;32.80;15.40;;;4.80;99.90;;;2.35;100.00;99864.91;10485562;28;20061;-78
2022/11/19 16:36:08;;;;;;;;;;;4.80;99.90;;;2.30;100.00;99874.91;10486375;28;20057;-78
2022/11/19 16:46:34;;;;;;;31.57;14.27;;;4.70;99.90;;;2.19;100.00;99901.97;10467941;28;20049;-78
2022/11/19 16:51:52;;;;;;;35.67;14.40;;;4.70;99.90;;;2.13;100.00;99892.81;10486176;28;20127;-80
2022/11/19 16:56:55;;;;;;;29.17;13.30;;;4.60;99.90;;;2.04;100.00;99904.03;10493442;28;20083;-78
2022/11/19 17:01:58;;;;;;;33.47;15.20;;;4.60;99.90;;;1.99;100.00;99894.88;10473815;28;20148;-78
2022/11/19 17:07:02;;;;;;;37.77;18.57;;;4.50;99.90;;;1.97;100.00;99896.75;10505948;28;20497;-78
2022/11/19 17:12:26;;;;;;;29.80;14.73;;;4.40;99.90;;;1.94;100.00;99894.38;10498394;28;20456;-78
2022/11/19 17:17:40;;;;;;;31.17;13.70;;;4.40;99.90;;;1.90;100.00;99925.22;10487574;28;20065;-78
2022/11/19 17:22:43;;;;;;;28.73;13.33;;;4.40;99.90;;;1.87;100.00;99931.56;10495540;28;20061;-79
2022/11/19 17:27:56;;;;;;;29.23;13.17;;;4.30;99.90;;;1.86;100.00;99934.31;10484076;28;20056;-79
2022/11/19 17:33:03;;;;;;;25.00;11.33;;;4.30;99.90;;;1.84;100.00;99950.13;10480789;28;20148;-79
2022/11/19 17:38:27;;;;;;;28.20;12.63;;;4.30;99.90;;;1.82;100.00;99951.19;10499036;28;20072;-78
2022/11/19 17:48:57;;;;;;;33.60;13.53;;;4.20;99.90;;;1.68;100.00;99954.03;10494162;28;20060;-79
2022/11/19 17:54:01;;;;;;;36.03;14.27;;;4.10;99.90;;;1.60;100.00;99949.38;10499284;28;20060;-79
2022/11/19 17:59:04;;;;;;;35.27;13.90;;;4.10;99.90;;;1.53;100.00;99940.31;10468130;28;20057;-79
2022/11/19 18:04:11;;;;;;;33.40;13.50;;;4.00;99.90;;;1.45;100.00;99932.22;10483657;28;20154;-79
2022/11/19 18:09:14;;;;;;;34.77;14.40;;;3.90;99.90;;;1.39;100.00;99903.88;10519416;28;20056;-79
2022/11/19 18:14:16;;;;;;;36.80;17.07;;;3.90;99.90;;;1.32;100.00;99901.72;10493451;28;20065;-78
2022/11/19 18:19:27;;;;;;;32.83;13.83;;;3.80;99.90;;;1.30;100.00;99901.00;10498495;28;20057;-79
2022/11/19 18:24:30;;;;;;;30.20;12.73;;;3.80;99.90;;;1.31;100.00;99910.50;10519867;28;20088;-79
2022/11/19 18:29:33;;;;;;;35.43;16.87;;;3.80;99.90;;;1.32;100.00;99912.22;10505144;28;20064;-79
2022/11/19 18:34:37;;;;;;;25.43;12.37;;;3.80;99.90;;;1.29;100.00;99907.19;10496503;28;20072;-79
2022/11/19 18:39:40;;;;;;;33.20;14.80;;;3.80;99.90;;;1.25;100.00;99905.75;10504323;28;20059;-79
2022/11/19 18:44:43;;;;;;;33.77;14.93;;;3.80;99.90;;;1.23;100.00;99923.34;10483827;28;20064;-79
2022/11/19 18:49:46;;;;;;;32.17;13.67;;;3.70;99.90;;;1.18;100.00;99925.47;10475855;28;20072;-79
2022/11/19 18:54:49;;;;;;;30.83;12.57;;;3.70;99.90;;;1.11;100.00;99929.50;10504191;28;20049;-79
2022/11/19 18:59:51;;;;;;;34.43;11.73;;;3.60;99.90;;;1.07;100.00;99913.19;10503833;28;20060;-79
2022/11/19 19:04:55;;;;;;;26.50;12.67;;;3.60;99.90;;;1.04;100.00;99923.91;10500682;28;20079;-79
2022/11/19 19:09:58;;;;;;;27.53;12.37;;;3.50;99.90;;;1.00;100.00;99926.84;10482175;28;20057;-79
2022/11/19 19:15:01;;;;;;;26.07;11.27;;;3.50;99.90;;;1.02;100.00;99931.03;10495905;28;20117;-79
2022/11/19 19:20:04;;;;;;;34.70;14.17;;;3.50;99.90;;;1.01;100.00;99928.50;10479606;28;20479;-78
2022/11/19 19:25:08;;;;;;;27.03;11.33;;;3.50;99.90;;;1.01;100.00;99925.91;10502354;28;20063;-79
2022/11/19 19:30:11;;;;;;;21.97;11.17;;;3.50;99.90;;;1.00;100.00;99942.53;10497009;28;20068;-79
2022/11/19 19:35:14;;;;;;;29.50;10.73;;;3.50;99.90;;;1.03;100.00;99948.41;10481341;28;20056;-79
2022/11/19 19:40:17;;;;;;;26.70;11.33;;;3.50;99.90;;;1.06;100.00;99942.09;10466127;28;20059;-79
2022/11/19 19:45:20;;;;;;;21.97;9.80;;;3.50;99.90;;;1.03;100.00;99927.47;10480764;28;20524;-79
2022/11/19 19:50:23;;;;;;;27.67;12.07;;;3.50;99.90;;;1.02;100.00;99911.84;10501167;28;20057;-79
2022/11/19 19:55:26;;;;;;;27.87;12.77;;;3.50;99.90;;;1.02;100.00;99922.31;10504281;28;20114;-78
2022/11/19 20:00:29;;;;;;;32.10;13.07;;;3.50;99.90;;;0.99;100.00;99930.41;10499127;28;20140;-79
2022/11/19 20:05:32;;;;;;;33.53;13.07;;;3.50;99.90;;;0.92;100.00;99944.91;10507597;28;20142;-79
2022/11/19 20:10:35;;;;;;;28.73;12.93;;;3.40;99.90;;;0.89;100.00;99950.34;10480050;28;20057;-78
2022/11/19 20:15:40;;;;;;;33.63;13.23;;;3.40;99.90;;;0.88;100.00;99954.75;10487896;28;20520;-80
2022/11/19 20:20:42;;;;;;;30.87;12.20;;;3.40;99.90;;;0.88;100.00;99944.28;10501126;28;20130;-79
2022/11/19 20:25:45;;;;;;;27.17;12.10;;;3.40;99.90;;;0.87;100.00;99953.09;10500848;28;20064;-79
2022/11/19 20:30:48;;;;;;;27.83;10.60;;;3.40;99.90;;;0.85;100.00;99948.91;10483849;28;20057;-79
2022/11/19 20:35:51;;;;;;;26.90;11.80;;;3.40;99.90;;;0.83;100.00;99940.31;10453341;28;20067;-79
2022/11/19 20:41:00;;;;;;;30.03;12.10;;;3.30;99.90;;;0.78;100.00;99954.59;10484286;28;20063;-79
2022/11/19 20:46:10;;;;;;;27.37;12.63;;;3.30;99.90;;;0.76;100.00;99953.03;10475935;28;20509;-79
2022/11/19 20:51:18;;;;;;;29.17;12.67;;;3.30;99.90;;;0.70;100.00;99963.94;10497999;28;20061;-79
2022/11/19 20:56:21;;;;;;;23.67;11.53;;;3.20;99.90;;;0.70;100.00;99961.31;10492112;28;20528;-79
2022/11/19 21:01:24;;;;;;;25.80;12.10;;;3.20;99.90;;;0.66;100.00;99958.09;10484040;28;20135;-78
2022/11/19 21:06:33;;;;;;;24.50;12.17;;;3.20;99.90;;;0.64;100.00;99959.16;10485086;28;20081;-79
2022/11/19 21:11:36;;;;;;;24.57;10.40;;;3.20;99.90;;;0.60;100.00;99973.38;10510942;28;20501;-79
2022/11/19 21:16:39;;;;;;;25.47;12.13;;;3.10;99.90;;;0.55;100.00;99949.34;10515587;28;20057;-79
2022/11/19 21:21:44;;;;;;;27.87;11.63;;;3.10;99.90;;;0.51;100.00;99967.03;10482503;28;20057;-79
2022/11/19 21:26:47;;;;;;;28.07;12.33;;;3.00;99.90;;;0.46;100.00;99941.22;10466883;28;20065;-79
2022/11/19 21:31:50;;;;;;;29.63;13.07;;;3.00;99.90;;;0.47;100.00;99949.88;10471969;28;20069;-79
2022/11/19 21:36:53;;;;;;;31.73;13.60;;;3.00;99.90;;;0.42;100.00;99947.63;10531105;28;20057;-79
2022/11/19 21:41:59;;;;;;;38.70;15.50;;;3.00;99.90;;;0.39;100.00;99934.75;10482812;28;20509;-78
2022/11/19 21:47:02;;;;;;;31.47;12.80;;;2.90;99.90;;;0.39;100.00;99924.31;10465411;28;20820;-79
2022/11/19 21:52:06;;;;;;;25.53;11.37;;;2.90;99.90;;;0.38;100.00;99916.56;10496321;28;20134;-78
2022/11/19 21:57:08;;;;;;;23.40;10.83;;;2.90;99.90;;;0.34;100.00;99918.56;10487943;28;20068;-78
2022/11/19 22:02:12;;;;;;;26.23;12.13;;;2.90;99.90;;;0.33;100.00;99903.00;10480816;28;20429;-79
2022/11/19 22:07:15;;;;;;;27.23;11.77;;;2.90;99.90;;;0.28;100.00;99902.47;10473111;28;20065;-78
2022/11/19 22:12:18;;;;;;;24.37;10.50;;;2.80;99.90;;;0.26;100.00;99900.81;10495991;28;20057;-78
2022/11/19 22:17:21;;;;;;;24.13;9.90;;;2.80;99.90;;;0.23;100.00;99885.34;10491085;28;20146;-83